createdAt,value
2016-11-11T00:00:03.217Z,0
2016-11-11T00:01:04.322Z,0
2016-11-11T00:02:02.785Z,0
2016-11-11T00:03:02.642Z,0
2016-11-11T00:04:02.756Z,0
2016-11-11T00:05:02.796Z,0
2016-11-11T00:06:03.428Z,0
2016-11-11T00:07:02.769Z,0
2016-11-11T00:08:03.563Z,0
2016-11-11T00:09:03.753Z,0
2016-11-11T00:10:03.087Z,0
2016-11-11T00:11:03.388Z,0
2016-11-11T00:12:03.095Z,0
2016-11-11T00:13:03.450Z,0
2016-11-11T00:14:03.045Z,0
2016-11-11T00:15:03.089Z,0
2016-11-11T00:16:02.939Z,0
2016-11-11T00:17:02.662Z,0
2016-11-11T00:18:03.072Z,0
2016-11-11T00:19:03.575Z,0
2016-11-11T00:20:03.513Z,0
2016-11-11T00:21:03.086Z,0
2016-11-11T00:22:03.998Z,0
2016-11-11T00:23:03.624Z,0
2016-11-11T00:24:04.023Z,0
2016-11-11T00:25:04.103Z,0
2016-11-11T00:26:03.789Z,0
2016-11-11T00:27:04.683Z,0
2016-11-11T00:28:03.626Z,0
2016-11-11T00:29:04.785Z,0
2016-11-11T00:30:02.998Z,0
2016-11-11T00:31:02.864Z,0
2016-11-11T00:32:02.697Z,0
2016-11-11T00:33:03.587Z,0
2016-11-11T00:34:04.282Z,0
2016-11-11T00:35:03.927Z,0
2016-11-11T00:36:03.268Z,0
2016-11-11T00:37:03.604Z,0
2016-11-11T00:38:03.799Z,0
2016-11-11T00:39:03.675Z,0
2016-11-11T00:40:04.091Z,0
2016-11-11T00:41:03.616Z,0
2016-11-11T00:42:03.256Z,0
2016-11-11T00:43:04.052Z,0
2016-11-11T00:44:03.997Z,0
2016-11-11T00:45:03.684Z,0
2016-11-11T00:46:03.106Z,0
2016-11-11T00:47:03.704Z,0
2016-11-11T00:48:03.429Z,0
2016-11-11T00:49:04.788Z,0
2016-11-11T00:50:03.641Z,0
2016-11-11T00:51:04.478Z,0
2016-11-11T00:52:04.684Z,0
2016-11-11T00:53:04.446Z,0
2016-11-11T00:54:04.031Z,0
2016-11-11T00:55:04.835Z,0
2016-11-11T00:56:03.990Z,0
2016-11-11T00:57:04.131Z,0
2016-11-11T00:58:04.217Z,0
2016-11-11T00:59:05.007Z,0
2016-11-11T01:00:03.787Z,0
2016-11-11T01:01:03.200Z,0
2016-11-11T01:02:04.046Z,0
2016-11-11T01:03:03.860Z,0
2016-11-11T01:04:03.966Z,0
2016-11-11T01:05:05.338Z,0
2016-11-11T01:06:04.307Z,0
2016-11-11T01:07:05.411Z,0
2016-11-11T01:08:03.779Z,0
2016-11-11T01:09:03.656Z,0
2016-11-11T01:10:04.237Z,0
2016-11-11T01:11:04.264Z,0
2016-11-11T01:12:05.426Z,0
2016-11-11T01:13:03.470Z,0
2016-11-11T01:14:03.812Z,0
2016-11-11T01:15:03.969Z,0
2016-11-11T01:16:04.427Z,0
2016-11-11T01:17:05.431Z,0
2016-11-11T01:18:04.675Z,0
2016-11-11T01:19:03.810Z,0
2016-11-11T01:20:03.764Z,0
2016-11-11T01:21:04.452Z,0
2016-11-11T01:22:05.440Z,0
2016-11-11T01:23:04.646Z,0
2016-11-11T01:24:04.964Z,0
2016-11-11T01:25:03.806Z,0
2016-11-11T01:26:03.970Z,0
2016-11-11T01:27:05.665Z,0
2016-11-11T01:28:04.740Z,0
2016-11-11T01:29:03.942Z,0
2016-11-11T01:30:04.131Z,0
2016-11-11T01:31:04.738Z,0
2016-11-11T01:32:04.284Z,0
2016-11-11T01:33:05.749Z,0
2016-11-11T01:34:05.787Z,0
2016-11-11T01:35:04.318Z,0
2016-11-11T01:36:05.117Z,0
2016-11-11T01:37:05.763Z,0
2016-11-11T01:38:04.220Z,0
2016-11-11T01:39:04.822Z,0
2016-11-11T01:40:05.549Z,0
2016-11-11T01:41:05.246Z,0
2016-11-11T01:42:04.466Z,0
2016-11-11T01:43:04.855Z,0
2016-11-11T01:44:04.704Z,0
2016-11-11T01:45:05.153Z,0
2016-11-11T01:46:04.784Z,0
2016-11-11T01:47:05.111Z,0
2016-11-11T01:48:04.370Z,0
2016-11-11T01:49:05.108Z,0
2016-11-11T01:50:04.377Z,0
2016-11-11T01:51:04.242Z,0
2016-11-11T01:52:04.976Z,0
2016-11-11T01:53:05.294Z,0
2016-11-11T01:54:04.295Z,0
2016-11-11T01:55:05.236Z,0
2016-11-11T01:56:05.369Z,0
2016-11-11T01:57:05.662Z,0
2016-11-11T01:58:04.218Z,0
2016-11-11T01:59:06.317Z,0
2016-11-11T02:00:04.840Z,0
2016-11-11T02:01:04.969Z,0
2016-11-11T02:02:04.854Z,0
2016-11-11T02:03:04.564Z,0
2016-11-11T02:04:05.145Z,0
2016-11-11T02:05:04.582Z,0
2016-11-11T02:06:04.781Z,0
2016-11-11T02:07:05.225Z,0
2016-11-11T02:08:04.890Z,0
2016-11-11T02:09:05.316Z,0
2016-11-11T02:10:04.470Z,0
2016-11-11T02:11:05.487Z,0
2016-11-11T02:12:05.477Z,0
2016-11-11T02:13:04.562Z,0
2016-11-11T02:14:04.838Z,0
2016-11-11T02:15:05.454Z,0
2016-11-11T02:16:05.213Z,0
2016-11-11T02:17:05.461Z,0
2016-11-11T02:18:05.021Z,0
2016-11-11T02:19:04.959Z,0
2016-11-11T02:20:04.979Z,0
2016-11-11T02:21:05.159Z,0
2016-11-11T02:22:06.079Z,0
2016-11-11T02:23:05.581Z,0
2016-11-11T02:24:05.647Z,0
2016-11-11T02:25:05.281Z,0
2016-11-11T02:26:04.665Z,0
2016-11-11T02:27:05.262Z,0
2016-11-11T02:28:05.306Z,0
2016-11-11T02:29:05.031Z,0
2016-11-11T02:30:05.027Z,0
2016-11-11T02:31:06.317Z,0
2016-11-11T02:32:05.795Z,0
2016-11-11T02:33:06.147Z,0
2016-11-11T02:34:05.980Z,0
2016-11-11T02:35:05.661Z,0
2016-11-11T02:36:05.547Z,0
2016-11-11T02:37:05.430Z,0
2016-11-11T02:38:06.017Z,0
2016-11-11T02:39:05.673Z,0
2016-11-11T02:40:05.373Z,0
2016-11-11T02:41:06.170Z,0
2016-11-11T02:42:05.509Z,0
2016-11-11T02:43:06.122Z,0
2016-11-11T02:44:05.099Z,0
2016-11-11T02:45:05.329Z,0
2016-11-11T02:46:05.116Z,0
2016-11-11T02:47:06.542Z,0
2016-11-11T02:48:05.682Z,0
2016-11-11T02:49:05.824Z,0
2016-11-11T02:50:06.665Z,0
2016-11-11T02:51:07.014Z,0
2016-11-11T02:52:05.516Z,0
2016-11-11T02:53:05.110Z,0
2016-11-11T02:54:07.816Z,0
2016-11-11T02:55:04.856Z,0
2016-11-11T02:56:05.880Z,0
2016-11-11T02:57:05.808Z,0
2016-11-11T02:58:06.005Z,0
2016-11-11T02:59:06.140Z,0
2016-11-11T03:00:05.505Z,0
2016-11-11T03:01:05.585Z,0
2016-11-11T03:02:05.729Z,0
2016-11-11T03:03:05.973Z,0
2016-11-11T03:04:06.432Z,0
2016-11-11T03:05:05.351Z,0
2016-11-11T03:06:05.992Z,0
2016-11-11T03:07:09.332Z,0
2016-11-11T03:08:05.841Z,0
2016-11-11T03:09:05.708Z,0
2016-11-11T03:10:05.702Z,0
2016-11-11T03:11:05.258Z,0
2016-11-11T03:12:06.454Z,0
2016-11-11T03:13:05.658Z,0
2016-11-11T03:14:05.370Z,0
2016-11-11T03:15:05.822Z,0
2016-11-11T03:16:05.380Z,0
2016-11-11T03:17:06.167Z,0
2016-11-11T03:18:04.903Z,0
2016-11-11T03:19:06.190Z,0
2016-11-11T03:20:05.730Z,0
2016-11-11T03:21:06.300Z,0
2016-11-11T03:22:05.672Z,0
2016-11-11T03:23:06.548Z,0
2016-11-11T03:24:05.625Z,0
2016-11-11T03:25:06.244Z,0
2016-11-11T03:26:06.021Z,0
2016-11-11T03:27:05.803Z,0
2016-11-11T03:28:06.657Z,0
2016-11-11T03:29:05.994Z,0
2016-11-11T03:30:05.602Z,0
2016-11-11T03:31:06.208Z,0
2016-11-11T03:32:07.561Z,0
2016-11-11T03:33:07.237Z,0
2016-11-11T03:34:06.181Z,0
2016-11-11T03:35:06.702Z,0
2016-11-11T03:36:05.933Z,0
2016-11-11T03:37:06.505Z,0
2016-11-11T03:38:06.110Z,0
2016-11-11T03:39:06.100Z,0
2016-11-11T03:40:05.518Z,0
2016-11-11T03:41:05.645Z,0
2016-11-11T03:42:05.628Z,0
2016-11-11T03:43:05.601Z,0
2016-11-11T03:44:06.316Z,0
2016-11-11T03:45:06.637Z,0
2016-11-11T03:46:06.423Z,0
2016-11-11T03:47:07.572Z,0
2016-11-11T03:48:06.126Z,0
2016-11-11T03:49:06.401Z,0
2016-11-11T03:50:06.349Z,0
2016-11-11T03:51:07.899Z,0
2016-11-11T03:52:06.425Z,0
2016-11-11T03:53:06.027Z,0
2016-11-11T03:54:06.352Z,0
2016-11-11T03:55:05.873Z,0
2016-11-11T03:56:06.164Z,0
2016-11-11T03:57:06.757Z,0
2016-11-11T03:58:05.886Z,0
2016-11-11T03:59:06.345Z,0
2016-11-11T04:00:05.941Z,0
2016-11-11T04:01:06.420Z,0
2016-11-11T04:02:06.345Z,0
2016-11-11T04:03:07.513Z,0
2016-11-11T04:04:06.219Z,0
2016-11-11T04:05:05.910Z,0
2016-11-11T04:06:07.548Z,0
2016-11-11T04:07:07.333Z,0
2016-11-11T04:08:06.338Z,0
2016-11-11T04:09:06.380Z,0
2016-11-11T04:10:06.240Z,0
2016-11-11T04:11:06.569Z,0
2016-11-11T04:12:06.625Z,0
2016-11-11T04:13:05.935Z,0
2016-11-11T04:14:06.087Z,0
2016-11-11T04:15:06.237Z,0
2016-11-11T04:16:06.621Z,0
2016-11-11T04:17:06.601Z,0
2016-11-11T04:18:07.078Z,0
2016-11-11T04:19:07.675Z,0
2016-11-11T04:20:07.414Z,0
2016-11-11T04:21:06.191Z,0
2016-11-11T04:22:06.591Z,0
2016-11-11T04:23:07.676Z,0
2016-11-11T04:24:06.646Z,0
2016-11-11T04:25:07.591Z,0
2016-11-11T04:26:07.775Z,0
2016-11-11T04:27:07.016Z,0
2016-11-11T04:28:07.093Z,0
2016-11-11T04:29:07.439Z,0
2016-11-11T04:30:07.308Z,0
2016-11-11T04:31:06.530Z,0
2016-11-11T04:32:06.839Z,0
2016-11-11T04:33:07.010Z,0
2016-11-11T04:34:06.410Z,0
2016-11-11T04:35:06.230Z,0
2016-11-11T04:36:06.500Z,0
2016-11-11T04:37:06.731Z,0
2016-11-11T04:38:06.630Z,0
2016-11-11T04:39:07.085Z,0
2016-11-11T04:40:07.410Z,0
2016-11-11T04:41:07.111Z,0
2016-11-11T04:42:06.438Z,0
2016-11-11T04:43:06.183Z,0
2016-11-11T04:44:06.452Z,0
2016-11-11T04:45:07.590Z,0
2016-11-11T04:46:06.836Z,0
2016-11-11T04:47:07.142Z,0
2016-11-11T04:48:08.116Z,0
2016-11-11T04:49:07.556Z,0
2016-11-11T04:50:07.017Z,0
2016-11-11T04:51:07.319Z,0
2016-11-11T04:52:08.284Z,0
2016-11-11T04:53:06.786Z,0
2016-11-11T04:54:06.569Z,0
2016-11-11T04:55:07.311Z,0
2016-11-11T04:56:07.526Z,0
2016-11-11T04:57:07.815Z,0
2016-11-11T04:58:07.069Z,0
2016-11-11T04:59:06.281Z,0
2016-11-11T05:00:06.790Z,0
2016-11-11T05:01:06.952Z,0
2016-11-11T05:02:06.843Z,0
2016-11-11T05:03:07.020Z,0
2016-11-11T05:04:07.600Z,0
2016-11-11T05:05:06.912Z,0
2016-11-11T05:06:07.606Z,0
2016-11-11T05:07:07.623Z,0
2016-11-11T05:08:08.293Z,0
2016-11-11T05:09:07.366Z,0
2016-11-11T05:10:08.289Z,0
2016-11-11T05:11:07.712Z,0
2016-11-11T05:12:07.694Z,0
2016-11-11T05:13:07.382Z,0
2016-11-11T05:14:07.687Z,0
2016-11-11T05:15:08.628Z,0
2016-11-11T05:16:08.659Z,0
2016-11-11T05:17:09.424Z,0
2016-11-11T05:18:08.353Z,0
2016-11-11T05:19:08.120Z,0
2016-11-11T05:20:08.444Z,0
2016-11-11T05:21:07.892Z,0
2016-11-11T05:22:08.583Z,0
2016-11-11T05:23:08.019Z,0
2016-11-11T05:24:08.299Z,0
2016-11-11T05:25:07.148Z,0
2016-11-11T05:26:07.526Z,0
2016-11-11T05:27:08.621Z,0
2016-11-11T05:28:07.793Z,0
2016-11-11T05:29:07.393Z,0
2016-11-11T05:30:08.004Z,0
2016-11-11T05:31:08.812Z,0
2016-11-11T05:32:08.111Z,0
2016-11-11T05:33:08.724Z,0
2016-11-11T05:34:07.944Z,0
2016-11-11T05:35:08.960Z,0
2016-11-11T05:36:08.149Z,0
2016-11-11T05:37:07.700Z,0
2016-11-11T05:38:07.614Z,0
2016-11-11T05:39:07.406Z,0
2016-11-11T05:40:07.780Z,0
2016-11-11T05:41:08.442Z,0
2016-11-11T05:42:08.044Z,0
2016-11-11T05:43:08.046Z,0
2016-11-11T05:44:08.334Z,0
2016-11-11T05:45:07.949Z,0
2016-11-11T05:46:09.540Z,0
2016-11-11T05:47:07.733Z,0
2016-11-11T05:48:08.571Z,0
2016-11-11T05:49:08.796Z,0
2016-11-11T05:50:08.284Z,0
2016-11-11T05:51:09.713Z,0
2016-11-11T05:52:08.484Z,0
2016-11-11T05:53:08.271Z,0
2016-11-11T05:54:08.294Z,0
2016-11-11T05:55:09.336Z,0
2016-11-11T05:56:07.663Z,0
2016-11-11T05:57:07.980Z,0
2016-11-11T05:58:09.138Z,0
2016-11-11T05:59:09.238Z,0
2016-11-11T06:00:08.871Z,0
2016-11-11T06:01:07.957Z,0
2016-11-11T06:02:07.976Z,0
2016-11-11T06:03:08.236Z,0
2016-11-11T06:04:08.645Z,0
2016-11-11T06:05:08.464Z,4
2016-11-11T06:06:07.947Z,4
2016-11-11T06:07:08.284Z,0
2016-11-11T06:08:07.735Z,4
2016-11-11T06:09:08.674Z,4
2016-11-11T06:10:08.995Z,4
2016-11-11T06:11:09.129Z,4
2016-11-11T06:12:08.561Z,8
2016-11-11T06:13:09.139Z,4
2016-11-11T06:14:08.524Z,8
2016-11-11T06:15:08.617Z,8
2016-11-11T06:16:08.659Z,8
2016-11-11T06:17:09.172Z,8
2016-11-11T06:18:08.249Z,12
2016-11-11T06:19:08.443Z,12
2016-11-11T06:20:08.191Z,16
2016-11-11T06:21:09.280Z,20
2016-11-11T06:22:08.141Z,24
2016-11-11T06:23:08.367Z,28
2016-11-11T06:24:08.818Z,32
2016-11-11T06:25:08.820Z,36
2016-11-11T06:26:08.117Z,40
2016-11-11T06:27:09.390Z,44
2016-11-11T06:28:08.929Z,52
2016-11-11T06:29:08.031Z,56
2016-11-11T06:30:07.883Z,60
2016-11-11T06:31:09.515Z,68
2016-11-11T06:32:09.685Z,68
2016-11-11T06:33:09.331Z,72
2016-11-11T06:34:08.930Z,76
2016-11-11T06:35:09.236Z,84
2016-11-11T06:36:10.605Z,92
2016-11-11T06:37:09.204Z,112
2016-11-11T06:38:08.744Z,132
2016-11-11T06:39:08.673Z,148
2016-11-11T06:40:09.702Z,168
2016-11-11T06:41:08.780Z,184
2016-11-11T06:42:08.786Z,208
2016-11-11T06:43:08.351Z,232
2016-11-11T06:44:07.979Z,256
2016-11-11T06:45:08.141Z,284
2016-11-11T06:46:08.430Z,312
2016-11-11T06:47:08.504Z,324
2016-11-11T06:48:09.013Z,300
2016-11-11T06:49:08.907Z,284
2016-11-11T06:50:09.016Z,284
2016-11-11T06:51:09.204Z,296
2016-11-11T06:52:09.197Z,312
2016-11-11T06:53:09.051Z,308
2016-11-11T06:54:09.441Z,268
2016-11-11T06:55:08.454Z,252
2016-11-11T06:56:08.442Z,240
2016-11-11T06:57:08.787Z,240
2016-11-11T06:58:08.561Z,260
2016-11-11T06:59:08.792Z,304
2016-11-11T07:00:08.884Z,356
2016-11-11T07:01:08.916Z,380
2016-11-11T07:02:09.785Z,388
2016-11-11T07:03:10.185Z,376
2016-11-11T07:04:08.363Z,340
2016-11-11T07:05:08.449Z,308
2016-11-11T07:06:08.926Z,300
2016-11-11T07:07:08.538Z,312
2016-11-11T07:08:08.837Z,336
2016-11-11T07:09:07.819Z,340
2016-11-11T07:10:08.289Z,340
2016-11-11T07:11:08.510Z,336
2016-11-11T07:12:08.220Z,324
2016-11-11T07:13:08.729Z,320
2016-11-11T07:14:09.330Z,336
2016-11-11T07:15:09.014Z,364
2016-11-11T07:16:09.360Z,380
2016-11-11T07:17:08.410Z,372
2016-11-11T07:18:08.261Z,364
2016-11-11T07:19:09.246Z,372
2016-11-11T07:20:08.207Z,396
2016-11-11T07:21:08.429Z,416
2016-11-11T07:22:08.745Z,452
2016-11-11T07:23:08.751Z,508
2016-11-11T07:24:08.829Z,568
2016-11-11T07:25:09.053Z,600
2016-11-11T07:26:08.837Z,636
2016-11-11T07:27:08.597Z,676
2016-11-11T07:28:08.866Z,728
2016-11-11T07:29:08.885Z,780
2016-11-11T07:30:09.551Z,848
2016-11-11T07:31:09.102Z,928
2016-11-11T07:32:09.168Z,1004
2016-11-11T07:33:09.182Z,1040
2016-11-11T07:34:09.003Z,1100
2016-11-11T07:35:09.318Z,1096
2016-11-11T07:36:09.573Z,1096
2016-11-11T07:37:08.735Z,1044
2016-11-11T07:38:09.321Z,1020
2016-11-11T07:39:08.699Z,1032
2016-11-11T07:40:09.563Z,1052
2016-11-11T07:41:09.322Z,1056
2016-11-11T07:42:09.051Z,988
2016-11-11T07:43:09.205Z,900
2016-11-11T07:44:09.906Z,852
2016-11-11T07:45:09.628Z,916
2016-11-11T07:46:10.490Z,1072
2016-11-11T07:47:09.409Z,1272
2016-11-11T07:48:09.299Z,1400
2016-11-11T07:49:10.082Z,1468
2016-11-11T07:50:09.736Z,1540
2016-11-11T07:51:09.294Z,1612
2016-11-11T07:52:09.593Z,1552
2016-11-11T07:53:09.342Z,1508
2016-11-11T07:54:09.727Z,1520
2016-11-11T07:55:09.715Z,1472
2016-11-11T07:56:09.852Z,1432
2016-11-11T07:57:10.683Z,1392
2016-11-11T07:58:11.122Z,1348
2016-11-11T07:59:10.082Z,1340
2016-11-11T08:00:10.006Z,1288
2016-11-11T08:01:10.709Z,1188
2016-11-11T08:02:10.094Z,1080
2016-11-11T08:03:08.965Z,1028
2016-11-11T08:04:10.011Z,1012
2016-11-11T08:05:10.463Z,992
2016-11-11T08:06:09.447Z,972
2016-11-11T08:07:10.030Z,992
2016-11-11T08:08:09.799Z,1048
2016-11-11T08:09:10.275Z,1112
2016-11-11T08:10:10.752Z,1140
2016-11-11T08:11:10.166Z,1160
2016-11-11T08:12:10.206Z,1232
2016-11-11T08:13:09.542Z,1308
2016-11-11T08:14:10.032Z,1396
2016-11-11T08:15:09.895Z,1528
2016-11-11T08:16:10.715Z,1672
2016-11-11T08:17:11.814Z,1760
2016-11-11T08:18:10.593Z,1868
2016-11-11T08:19:09.919Z,1968
2016-11-11T08:20:11.158Z,2112
2016-11-11T08:21:13.304Z,2280
2016-11-11T08:22:10.439Z,2456
2016-11-11T08:23:11.162Z,2720
2016-11-11T08:24:10.422Z,3064
2016-11-11T08:25:10.814Z,3312
2016-11-11T08:26:10.097Z,3416
2016-11-11T08:27:10.609Z,3316
2016-11-11T08:28:10.415Z,3508
2016-11-11T08:29:10.071Z,3568
2016-11-11T08:30:11.185Z,3716
2016-11-11T08:31:10.050Z,3836
2016-11-11T08:32:10.397Z,3896
2016-11-11T08:33:09.949Z,3928
2016-11-11T08:34:10.512Z,3968
2016-11-11T08:35:10.963Z,3968
2016-11-11T08:36:10.567Z,3956
2016-11-11T08:37:11.143Z,4136
2016-11-11T08:38:10.682Z,4280
2016-11-11T08:39:11.125Z,4532
2016-11-11T08:40:11.475Z,4344
2016-11-11T08:41:10.815Z,3984
2016-11-11T08:42:09.893Z,3884
2016-11-11T08:43:11.098Z,3816
2016-11-11T08:44:09.895Z,3748
2016-11-11T08:45:09.477Z,3728
2016-11-11T08:46:10.544Z,3564
2016-11-11T08:47:11.315Z,3536
2016-11-11T08:48:09.932Z,3752
2016-11-11T08:49:10.214Z,4012
2016-11-11T08:50:10.835Z,3932
2016-11-11T08:51:10.583Z,3760
2016-11-11T08:52:10.771Z,3732
2016-11-11T08:53:10.417Z,3604
2016-11-11T08:54:10.835Z,3516
2016-11-11T08:55:11.385Z,3440
2016-11-11T08:56:10.299Z,3596
2016-11-11T08:57:11.083Z,3916
2016-11-11T08:58:11.874Z,3932
2016-11-11T08:59:11.043Z,3884
2016-11-11T09:00:09.666Z,3988
2016-11-11T09:01:10.204Z,4180
2016-11-11T09:02:10.449Z,4244
2016-11-11T09:03:10.545Z,4440
2016-11-11T09:04:11.168Z,4620
2016-11-11T09:05:10.507Z,4680
2016-11-11T09:06:10.306Z,4636
2016-11-11T09:07:11.260Z,4692
2016-11-11T09:08:10.597Z,5020
2016-11-11T09:09:11.397Z,5392
2016-11-11T09:10:10.665Z,5368
2016-11-11T09:11:11.399Z,5272
2016-11-11T09:12:10.936Z,5148
2016-11-11T09:13:10.225Z,4888
2016-11-11T09:14:12.163Z,4640
2016-11-11T09:15:10.545Z,4448
2016-11-11T09:16:10.982Z,4316
2016-11-11T09:17:11.325Z,4304
2016-11-11T09:18:10.823Z,4728
2016-11-11T09:19:11.101Z,5292
2016-11-11T09:20:11.220Z,6304
2016-11-11T09:21:10.479Z,7232
2016-11-11T09:22:10.638Z,7836
2016-11-11T09:23:10.502Z,7888
2016-11-11T09:24:11.692Z,7520
2016-11-11T09:25:10.845Z,6956
2016-11-11T09:26:10.846Z,6396
2016-11-11T09:27:10.168Z,6212
2016-11-11T09:28:11.157Z,6544
2016-11-11T09:29:11.500Z,6496
2016-11-11T09:30:11.051Z,6492
2016-11-11T09:31:11.987Z,6740
2016-11-11T09:32:11.200Z,7068
2016-11-11T09:33:11.387Z,7296
2016-11-11T09:34:12.244Z,7188
2016-11-11T09:35:10.294Z,6872
2016-11-11T09:36:10.405Z,6824
2016-11-11T09:37:11.484Z,7140
2016-11-11T09:38:11.624Z,7348
2016-11-11T09:39:12.233Z,7652
2016-11-11T09:40:10.849Z,7804
2016-11-11T09:41:11.268Z,8304
2016-11-11T09:42:12.218Z,8800
2016-11-11T09:43:11.240Z,9112
2016-11-11T09:44:11.673Z,9116
2016-11-11T09:45:10.708Z,9348
2016-11-11T09:46:11.327Z,9672
2016-11-11T09:47:11.337Z,9524
2016-11-11T09:48:12.040Z,9020
2016-11-11T09:49:11.222Z,8536
2016-11-11T09:50:11.308Z,8440
2016-11-11T09:51:11.816Z,8152
2016-11-11T09:52:11.735Z,7640
2016-11-11T09:53:10.707Z,7284
2016-11-11T09:54:13.716Z,7100
2016-11-11T09:55:11.781Z,6888
2016-11-11T09:56:10.764Z,6448
2016-11-11T09:57:11.089Z,5924
2016-11-11T09:58:11.929Z,5632
2016-11-11T09:59:10.655Z,5620
2016-11-11T10:00:11.147Z,5708
2016-11-11T10:01:11.830Z,5704
2016-11-11T10:02:11.642Z,5628
2016-11-11T10:03:11.238Z,5672
2016-11-11T10:04:11.221Z,5880
2016-11-11T10:05:11.220Z,6000
2016-11-11T10:06:11.581Z,5992
2016-11-11T10:07:10.745Z,6092
2016-11-11T10:08:11.250Z,6064
2016-11-11T10:09:11.511Z,5668
2016-11-11T10:10:10.943Z,5600
2016-11-11T10:11:11.590Z,5644
2016-11-11T10:12:11.583Z,5900
2016-11-11T10:13:11.086Z,6240
2016-11-11T10:14:11.588Z,6844
2016-11-11T10:15:10.924Z,8320
2016-11-11T10:16:11.506Z,10424
2016-11-11T10:17:12.146Z,11140
2016-11-11T10:18:11.100Z,10492
2016-11-11T10:19:11.836Z,9228
2016-11-11T10:20:11.480Z,8344
2016-11-11T10:21:11.912Z,8604
2016-11-11T10:22:11.448Z,9776
2016-11-11T10:23:11.803Z,10468
2016-11-11T10:24:11.749Z,10584
2016-11-11T10:25:12.335Z,10736
2016-11-11T10:26:11.032Z,10940
2016-11-11T10:27:11.674Z,11164
2016-11-11T10:28:11.276Z,10992
2016-11-11T10:29:11.636Z,10456
2016-11-11T10:30:11.947Z,9972
2016-11-11T10:31:11.787Z,10120
2016-11-11T10:32:11.468Z,10716
2016-11-11T10:33:11.586Z,11256
2016-11-11T10:34:12.293Z,11424
2016-11-11T10:35:12.819Z,10932
2016-11-11T10:36:11.655Z,10336
2016-11-11T10:37:11.827Z,10160
2016-11-11T10:38:12.097Z,10068
2016-11-11T10:39:13.354Z,9780
2016-11-11T10:40:11.632Z,9328
2016-11-11T10:41:11.192Z,8756
2016-11-11T10:42:12.162Z,8392
2016-11-11T10:43:11.154Z,8240
2016-11-11T10:44:12.601Z,8124
2016-11-11T10:45:11.598Z,7848
2016-11-11T10:46:11.943Z,7520
2016-11-11T10:47:11.354Z,7408
2016-11-11T10:48:11.420Z,7428
2016-11-11T10:49:11.780Z,7304
2016-11-11T10:50:11.516Z,6788
2016-11-11T10:51:12.336Z,6252
2016-11-11T10:52:12.042Z,5816
2016-11-11T10:53:12.109Z,5508
2016-11-11T10:54:12.828Z,5312
2016-11-11T10:55:12.750Z,5260
2016-11-11T10:56:13.205Z,5232
2016-11-11T10:57:11.491Z,5268
2016-11-11T10:58:12.224Z,5424
2016-11-11T10:59:12.287Z,5628
2016-11-11T11:00:11.544Z,5980
2016-11-11T11:01:12.209Z,6396
2016-11-11T11:02:12.004Z,6580
2016-11-11T11:03:13.230Z,6672
2016-11-11T11:04:12.725Z,6604
2016-11-11T11:05:13.677Z,6384
2016-11-11T11:06:12.586Z,6152
2016-11-11T11:07:12.027Z,5872
2016-11-11T11:08:13.103Z,5516
2016-11-11T11:09:11.831Z,5128
2016-11-11T11:10:13.472Z,4852
2016-11-11T11:11:12.289Z,4756
2016-11-11T11:12:12.363Z,4756
2016-11-11T11:13:12.140Z,4972
2016-11-11T11:14:12.916Z,5252
2016-11-11T11:15:13.404Z,5360
2016-11-11T11:16:12.263Z,5336
2016-11-11T11:17:13.064Z,5360
2016-11-11T11:18:11.883Z,5408
2016-11-11T11:19:11.733Z,5496
2016-11-11T11:20:12.565Z,5592
2016-11-11T11:21:13.381Z,5696
2016-11-11T11:22:13.662Z,5808
2016-11-11T11:23:13.546Z,5860
2016-11-11T11:24:12.765Z,5860
2016-11-11T11:25:12.968Z,5792
2016-11-11T11:26:13.309Z,5776
2016-11-11T11:27:12.946Z,5932
2016-11-11T11:28:12.616Z,6048
2016-11-11T11:29:13.292Z,6104
2016-11-11T11:30:12.707Z,6360
2016-11-11T11:31:12.486Z,6852
2016-11-11T11:32:13.150Z,7208
2016-11-11T11:33:12.588Z,7352
2016-11-11T11:34:12.909Z,7316
2016-11-11T11:35:12.283Z,7372
2016-11-11T11:36:13.009Z,7732
2016-11-11T11:37:12.704Z,8404
2016-11-11T11:38:13.695Z,8980
2016-11-11T11:39:12.854Z,9712
2016-11-11T11:40:12.619Z,10252
2016-11-11T11:41:12.648Z,10376
2016-11-11T11:42:13.168Z,11108
2016-11-11T11:43:13.080Z,11764
2016-11-11T11:44:12.893Z,11292
2016-11-11T11:45:14.022Z,11396
2016-11-11T11:46:12.737Z,11460
2016-11-11T11:47:13.085Z,10736
2016-11-11T11:48:12.092Z,10852
2016-11-11T11:49:13.130Z,11664
2016-11-11T11:50:13.636Z,12244
2016-11-11T11:51:13.117Z,12100
2016-11-11T11:52:13.490Z,11972
2016-11-11T11:53:13.648Z,11940
2016-11-11T11:54:13.944Z,12048
2016-11-11T11:55:12.704Z,12408
2016-11-11T11:56:12.816Z,12344
2016-11-11T11:57:13.034Z,12168
2016-11-11T11:58:13.174Z,11980
2016-11-11T11:59:12.930Z,11884
2016-11-11T12:00:12.943Z,11816
2016-11-11T12:01:12.355Z,11280
2016-11-11T12:02:13.417Z,10760
2016-11-11T12:03:12.611Z,10672
2016-11-11T12:04:12.810Z,10836
2016-11-11T12:05:13.582Z,11260
2016-11-11T12:06:13.469Z,11548
2016-11-11T12:07:13.307Z,11828
2016-11-11T12:08:13.046Z,11140
2016-11-11T12:09:13.143Z,10100
2016-11-11T12:10:13.740Z,9756
2016-11-11T12:11:13.740Z,10076
2016-11-11T12:12:13.701Z,10648
2016-11-11T12:13:13.460Z,11100
2016-11-11T12:14:12.903Z,10948
2016-11-11T12:15:13.210Z,10848
2016-11-11T12:16:12.982Z,10908
2016-11-11T12:17:13.910Z,10568
2016-11-11T12:18:13.976Z,10240
2016-11-11T12:19:13.435Z,10252
2016-11-11T12:20:13.265Z,10316
2016-11-11T12:21:13.023Z,10412
2016-11-11T12:22:13.201Z,10252
2016-11-11T12:23:13.883Z,10116
2016-11-11T12:24:13.376Z,10000
2016-11-11T12:25:13.473Z,9980
2016-11-11T12:26:13.269Z,9660
2016-11-11T12:27:13.808Z,9332
2016-11-11T12:28:13.328Z,8900
2016-11-11T12:29:13.695Z,8940
2016-11-11T12:30:13.845Z,9048
2016-11-11T12:31:13.143Z,8900
2016-11-11T12:32:13.915Z,8696
2016-11-11T12:33:14.579Z,8212
2016-11-11T12:34:13.025Z,7164
2016-11-11T12:35:13.824Z,6984
2016-11-11T12:36:13.733Z,7192
2016-11-11T12:37:13.817Z,7340
2016-11-11T12:38:13.485Z,7192
2016-11-11T12:39:14.166Z,6996
2016-11-11T12:40:13.138Z,7224
2016-11-11T12:41:13.425Z,7940
2016-11-11T12:42:13.807Z,8700
2016-11-11T12:43:13.902Z,8852
2016-11-11T12:44:13.168Z,8376
2016-11-11T12:45:14.291Z,7764
2016-11-11T12:46:13.417Z,7348
2016-11-11T12:47:14.638Z,6896
2016-11-11T12:48:13.743Z,6236
2016-11-11T12:49:13.915Z,5796
2016-11-11T12:50:14.028Z,5684
2016-11-11T12:51:13.192Z,5760
2016-11-11T12:52:12.994Z,5376
2016-11-11T12:53:13.919Z,5056
2016-11-11T12:54:14.411Z,4756
2016-11-11T12:55:13.787Z,4400
2016-11-11T12:56:13.411Z,4020
2016-11-11T12:57:13.567Z,3868
2016-11-11T12:58:13.844Z,3768
2016-11-11T12:59:13.533Z,3880
2016-11-11T13:00:13.910Z,4108
2016-11-11T13:01:14.605Z,3680
2016-11-11T13:02:13.603Z,3316
2016-11-11T13:03:13.063Z,2984
2016-11-11T13:04:13.293Z,2756
2016-11-11T13:05:13.441Z,2704
2016-11-11T13:06:14.352Z,2728
2016-11-11T13:07:14.393Z,2708
2016-11-11T13:08:13.675Z,2616
2016-11-11T13:09:13.708Z,2432
2016-11-11T13:10:14.776Z,2292
2016-11-11T13:11:14.940Z,2228
2016-11-11T13:12:13.781Z,2252
2016-11-11T13:13:14.468Z,2360
2016-11-11T13:14:13.688Z,2508
2016-11-11T13:15:13.781Z,2652
2016-11-11T13:16:13.931Z,2744
2016-11-11T13:17:13.980Z,2812
2016-11-11T13:18:13.745Z,2796
2016-11-11T13:19:14.107Z,2860
2016-11-11T13:20:14.175Z,3044
2016-11-11T13:21:14.247Z,3088
2016-11-11T13:22:13.645Z,3188
2016-11-11T13:23:14.149Z,3252
2016-11-11T13:24:13.929Z,3308
2016-11-11T13:25:14.462Z,3464
2016-11-11T13:26:14.193Z,3600
2016-11-11T13:27:15.053Z,3424
2016-11-11T13:28:14.861Z,3488
2016-11-11T13:29:13.892Z,3812
2016-11-11T13:30:14.295Z,3964
2016-11-11T13:31:14.628Z,4128
2016-11-11T13:32:13.960Z,3908
2016-11-11T13:33:14.810Z,3632
2016-11-11T13:34:14.093Z,3420
2016-11-11T13:35:14.514Z,3148
2016-11-11T13:36:14.305Z,2908
2016-11-11T13:37:14.969Z,2796
2016-11-11T13:38:13.960Z,2744
2016-11-11T13:39:14.177Z,2752
2016-11-11T13:40:14.517Z,2784
2016-11-11T13:41:14.676Z,2784
2016-11-11T13:42:14.685Z,2828
2016-11-11T13:43:14.936Z,3032
2016-11-11T13:44:15.175Z,3176
2016-11-11T13:45:16.166Z,3100
2016-11-11T13:46:14.518Z,3012
2016-11-11T13:47:14.918Z,3012
2016-11-11T13:48:14.844Z,2952
2016-11-11T13:49:14.523Z,2836
2016-11-11T13:50:14.196Z,2712
2016-11-11T13:51:14.417Z,2636
2016-11-11T13:52:14.456Z,2688
2016-11-11T13:53:13.792Z,2784
2016-11-11T13:54:14.689Z,2824
2016-11-11T13:55:14.734Z,2908
2016-11-11T13:56:15.414Z,2960
2016-11-11T13:57:14.861Z,2860